LFPVLFPM

Guest
Details From LFPV - Velizy
To LFPM - Melun Villaroche
Flight Number -
Tags generated
Created
Modified
Stats Distance 21 nm / 39 km
Max Altitude 0 ft / 0 m
Waypoints 2
Social Downloads 0
Likes 0
Share VATSIM

Download

Looking for another format? Having issues loading an existing format? Contact us
Advertisement - Login to hide

Notes

Basic altitude profile: - Ascent Rate: 2500ft/min - Ascent Speed: 250kts - Cruise Altitude: 35000ft - Cruise Speed: 420kts - Descent Rate: 1500ft/min - Descent Speed: 250kts Options: - Use NATs: yes - Use PACOTS: yes - Use low airways: yes - Use high airways: yes

Route

LFPV LFPM

ID Type Via Altitude Latitude Longitude Leg Dist Tot Dist Heading (true) Name
O LFPV APT - 0 ft / 0 m 48.77437˚ 2.20161˚ - 0 nm - Velizy
O LFPM APT - 0 ft / 0 m 48.60812˚ 2.67460˚ 21 nm 21 nm 118° / 118° Melun Villaroche

Altitude Profile

Advertisement - Login to hide

LFPV

Details ICAO LFPV
Name Velizy
Region France
Timezone Europe/Paris (UTC+1.0)
Stats Elevation 584 ft / 178 m (AMSL)
Location 48.774366° 2.201605°
Runways 1
Magnetic Variation 0.546° E

METAR

LFPV 121630Z AUTO 19003KT 9999 SCT021 03/01 Q1013 NOSIG

Decode

TAF

TAF TAF LFPV 121400Z 1215/1315 22006KT 9999 FEW020 BECMG 1222/1224 BKN008 TEMPO 1300/1306 BKN004 PROB40 TEMPO 1306/1308 4000 RA BKN003 TEMPO 1310/1315 22015G25KT BKN015

Decode

Departure Runways

ID Width Length Bearing (true) Bearing (mag) Surface Threshold Offset Overrun Length
09 148 ft / 45 m 5,932 ft / 1,808 m 88.30° 87.75° Asphalt 0 ft / 0 m 436 ft / 133 m
27 148 ft / 45 m 5,932 ft / 1,808 m 268.31° 267.76° Asphalt 0 ft / 0 m 0 ft / 0 m

LFPM

Details ICAO LFPM
Name Melun Villaroche
Region France
Timezone Europe/Paris (UTC+1.0)
Stats Elevation 302 ft / 92 m (AMSL)
Location 48.608124° 2.674603°
Runways 2
Magnetic Variation 0.699° E

METAR

LFPM 121630Z AUTO 22005KT 9999 BKN022 BKN027 OVC032 03/02 Q1015

Decode

TAF

Not found

Destination Runways

ID Width Length Bearing (true) Bearing (mag) Surface Threshold Offset Overrun Length
01 98 ft / 30 m 4,263 ft / 1,299 m 12.67° 11.97° Asphalt 0 ft / 0 m 656 ft / 200 m
10 148 ft / 45 m 6,455 ft / 1,968 m 103.53° 102.83° Asphalt 0 ft / 0 m 2,723 ft / 830 m
19 98 ft / 30 m 4,263 ft / 1,299 m 192.67° 191.97° Asphalt 0 ft / 0 m 2,034 ft / 620 m
28 148 ft / 45 m 6,455 ft / 1,968 m 283.55° 282.85° Asphalt 279 ft / 85 m 0 ft / 0 m

Approach Navaids

Runway Type Ident Frequency Range Bearing (true) Bearing (mag) Slope Elevation
28 Localiser MV 111.55 MHz 18 nm / 33 km 283.52° 282.82° - 302 ft / 92 m (AMSL)
28 Glidescope MV 111.55 MHz 10 nm / 19 km 283.54° 282.84° 3.00° 302 ft / 92 m (AMSL)
28 DME MV 111.55 MHz 18 nm / 33 km - - - 302 ft / 92 m (AMSL)